Time;durP1;ratioP1;P1;durP2;ratioP2;P2;SDS_P1;SDS_P2;PMS_P1;PMS_P2;Temp;Humidity;BMP_temperature;BMP_pressure;BME280_temperature;BME280_humidity;BME280_pressure;Samples;Min_cycle;Max_cycle;Signal;HPM_P1;HPM_P2
2022/04/03 00:02:05;;;;;;;7.45;3.40;;;;;;;;;;4964739;28;20047;-70
2022/04/03 00:04:31;;;;;;;5.78;2.30;;;;;;;;;;4949007;28;20043;-70
2022/04/03 00:06:59;;;;;;;4.28;2.13;;;;;;;;;;4948869;28;20075;-70
2022/04/03 00:09:26;;;;;;;4.38;2.40;;;;;;;;;;4948053;28;20533;-70
2022/04/03 00:11:52;;;;;;;5.68;2.47;;;;;;;;;;4951131;28;20051;-67
2022/04/03 00:14:18;;;;;;;8.60;2.47;;;;;;;;;;4967302;28;20062;-70
2022/04/03 00:16:44;;;;;;;4.15;2.38;;;;;;;;;;4949645;28;20046;-70
2022/04/03 00:19:10;;;;;;;5.88;2.33;;;;;;;;;;4967119;28;20065;-70
2022/04/03 00:21:37;;;;;;;3.75;2.15;;;;;;;;;;4965291;28;20054;-70
2022/04/03 00:24:03;;;;;;;12.43;3.88;;;;;;;;;;4959983;28;20046;-67
2022/04/03 00:26:30;;;;;;;3.95;2.22;;;;;;;;;;4967063;28;20045;-70
2022/04/03 00:28:56;;;;;;;6.43;2.35;;;;;;;;;;4939316;29;20082;-70
2022/04/03 00:31:23;;;;;;;5.05;2.50;;;;;;;;;;4933474;28;20805;-67
2022/04/03 00:33:49;;;;;;;4.63;2.33;;;;;;;;;;4966566;28;20804;-70
2022/04/03 00:36:15;;;;;;;9.88;2.38;;;;;;;;;;4966501;28;20117;-69
2022/04/03 00:38:41;;;;;;;6.03;2.15;;;;;;;;;;4967014;28;20624;-70
2022/04/03 00:41:08;;;;;;;3.35;1.90;;;;;;;;;;4964219;28;20043;-70
2022/04/03 00:43:34;;;;;;;4.40;2.30;;;;;;;;;;4948753;28;20047;-70
2022/04/03 00:46:01;;;;;;;6.40;2.40;;;;;;;;;;4948126;28;20459;-70
2022/04/03 00:48:27;;;;;;;5.95;2.97;;;;;;;;;;4967411;28;21802;-70
2022/04/03 00:50:54;;;;;;;9.18;2.58;;;;;;;;;;4966711;28;20043;-70
2022/04/03 00:53:20;;;;;;;4.57;2.63;;;;;;;;;;4966979;28;20039;-70
2022/04/03 00:55:46;;;;;;;6.10;2.65;;;;;;;;;;4966087;28;20430;-70
2022/04/03 00:58:13;;;;;;;4.38;2.13;;;;;;;;;;4966722;28;20050;-70
2022/04/03 01:00:40;;;;;;;7.30;3.15;;;;;;;;;;4966958;28;20074;-69
2022/04/03 01:03:06;;;;;;;5.55;2.70;;;;;;;;;;4962533;28;20113;-70
2022/04/03 01:05:33;;;;;;;8.30;2.17;;;;;;;;;;4966557;28;20393;-70
2022/04/03 01:08:00;;;;;;;4.80;2.30;;;;;;;;;;4966339;28;20065;-70
2022/04/03 01:10:26;;;;;;;6.95;2.05;;;;;;;;;;4965607;28;20046;-70
2022/04/03 01:12:52;;;;;;;8.70;2.35;;;;;;;;;;4966350;28;20034;-70
2022/04/03 01:15:19;;;;;;;4.88;2.38;;;;;;;;;;4967211;28;20481;-70
2022/04/03 01:17:45;;;;;;;3.55;1.98;;;;;;;;;;4966481;28;20043;-70
2022/04/03 01:20:11;;;;;;;5.85;2.10;;;;;;;;;;4948493;28;20046;-70
2022/04/03 01:22:37;;;;;;;4.85;2.38;;;;;;;;;;4966871;28;20042;-70
2022/04/03 01:25:04;;;;;;;5.55;2.17;;;;;;;;;;4948189;28;20043;-70
2022/04/03 01:27:30;;;;;;;7.28;2.28;;;;;;;;;;4966307;28;20066;-71
2022/04/03 01:29:57;;;;;;;11.35;2.53;;;;;;;;;;4966074;28;20110;-70
2022/04/03 01:32:24;;;;;;;5.53;2.13;;;;;;;;;;4966555;28;20073;-70
2022/04/03 01:34:51;;;;;;;4.60;2.20;;;;;;;;;;4962163;28;20046;-70
2022/04/03 01:37:17;;;;;;;7.03;2.28;;;;;;;;;;4966601;28;20046;-69
2022/04/03 01:39:43;;;;;;;4.40;1.90;;;;;;;;;;4965483;28;20512;-70
2022/04/03 01:42:09;;;;;;;4.72;2.20;;;;;;;;;;4966427;28;20559;-70
2022/04/03 01:44:36;;;;;;;5.40;2.03;;;;;;;;;;4966250;28;20074;-69
2022/04/03 01:47:02;;;;;;;4.70;2.20;;;;;;;;;;4965998;28;20055;-70
2022/04/03 01:49:28;;;;;;;4.45;2.30;;;;;;;;;;4966459;28;20045;-70
2022/04/03 01:51:54;;;;;;;5.80;2.30;;;;;;;;;;4966442;28;20139;-70
2022/04/03 01:54:21;;;;;;;6.43;2.72;;;;;;;;;;4965531;28;20133;-70
2022/04/03 01:56:47;;;;;;;7.15;2.45;;;;;;;;;;4949451;28;20035;-69
2022/04/03 01:59:13;;;;;;;6.90;2.08;;;;;;;;;;4965625;28;20089;-69
2022/04/03 02:01:39;;;;;;;4.65;1.98;;;;;;;;;;4949422;28;20417;-69
2022/04/03 02:04:06;;;;;;;10.60;2.70;;;;;;;;;;4965330;28;20465;-70
2022/04/03 02:06:32;;;;;;;4.82;2.03;;;;;;;;;;4948945;28;20047;-69
2022/04/03 02:08:58;;;;;;;5.55;1.90;;;;;;;;;;4965199;28;20094;-70
2022/04/03 02:11:24;;;;;;;6.93;2.15;;;;;;;;;;4965811;28;20575;-69
2022/04/03 02:13:51;;;;;;;5.28;2.00;;;;;;;;;;4966742;28;20482;-70
2022/04/03 02:16:18;;;;;;;3.92;2.25;;;;;;;;;;4966275;28;20038;-69
2022/04/03 02:18:44;;;;;;;5.35;2.13;;;;;;;;;;4966206;28;20201;-69
2022/04/03 02:21:11;;;;;;;5.50;2.30;;;;;;;;;;4948139;28;20054;-70
2022/04/03 02:23:37;;;;;;;5.28;2.10;;;;;;;;;;4965920;28;20089;-70
2022/04/03 02:26:03;;;;;;;4.82;2.20;;;;;;;;;;4964886;28;20034;-69
2022/04/03 02:28:29;;;;;;;6.78;2.13;;;;;;;;;;4965819;28;20055;-69
2022/04/03 02:30:55;;;;;;;4.15;1.80;;;;;;;;;;4947866;28;20043;-70
2022/04/03 02:33:21;;;;;;;5.78;2.15;;;;;;;;;;4966231;28;20069;-69
2022/04/03 02:35:48;;;;;;;5.95;2.28;;;;;;;;;;4966106;28;20077;-70
2022/04/03 02:38:16;;;;;;;5.70;1.95;;;;;;;;;;4965659;28;20097;-70
2022/04/03 02:40:43;;;;;;;5.28;2.42;;;;;;;;;;4964753;28;20394;-70
2022/04/03 02:43:09;;;;;;;8.30;2.85;;;;;;;;;;4965458;28;20175;-70
2022/04/03 02:45:36;;;;;;;5.63;2.35;;;;;;;;;;4965808;28;20034;-70
2022/04/03 02:48:02;;;;;;;5.88;2.58;;;;;;;;;;4969169;28;20086;-70
2022/04/03 02:50:28;;;;;;;4.97;2.03;;;;;;;;;;4969304;28;20158;-70
2022/04/03 02:52:55;;;;;;;7.45;2.50;;;;;;;;;;4969239;28;20102;-70
2022/04/03 02:55:22;;;;;;;8.23;3.13;;;;;;;;;;4968740;28;20086;-70
2022/04/03 02:57:48;;;;;;;6.78;2.63;;;;;;;;;;4968867;28;20039;-70
2022/04/03 03:00:15;;;;;;;6.32;2.47;;;;;;;;;;4969013;28;20097;-70
2022/04/03 03:02:41;;;;;;;5.10;2.30;;;;;;;;;;4969034;28;20081;-68
2022/04/03 03:05:08;;;;;;;7.20;2.65;;;;;;;;;;4969065;28;20043;-70
2022/04/03 03:07:37;;;;;;;5.50;2.42;;;;;;;;;;4968731;28;20054;-69
2022/04/03 03:10:04;;;;;;;4.70;2.28;;;;;;;;;;4968043;28;20058;-70
2022/04/03 03:12:30;;;;;;;8.48;2.45;;;;;;;;;;4968931;28;20105;-70
2022/04/03 03:14:56;;;;;;;8.82;2.42;;;;;;;;;;4968568;28;20061;-70
2022/04/03 03:17:22;;;;;;;4.30;2.55;;;;;;;;;;4951206;28;20069;-70
2022/04/03 03:19:49;;;;;;;5.53;2.40;;;;;;;;;;4969062;28;20047;-69
2022/04/03 03:22:15;;;;;;;7.28;2.85;;;;;;;;;;4950936;28;20049;-69
2022/04/03 03:24:41;;;;;;;9.60;2.38;;;;;;;;;;4968031;28;20068;-69
2022/04/03 03:27:07;;;;;;;5.13;2.38;;;;;;;;;;4950930;28;20066;-69
2022/04/03 03:29:33;;;;;;;6.88;3.60;;;;;;;;;;4968763;28;20043;-69
2022/04/03 03:32:00;;;;;;;3.60;2.30;;;;;;;;;;4968087;28;20039;-69
2022/04/03 03:34:26;;;;;;;3.97;2.28;;;;;;;;;;4968217;28;20042;-69
2022/04/03 03:36:52;;;;;;;4.97;2.70;;;;;;;;;;4950639;28;20101;-67
2022/04/03 03:39:18;;;;;;;4.80;2.58;;;;;;;;;;4968003;28;20053;-70
2022/04/03 03:41:45;;;;;;;5.07;2.38;;;;;;;;;;4968420;28;20117;-69
2022/04/03 03:44:11;;;;;;;3.50;2.30;;;;;;;;;;4968168;28;20050;-70
2022/04/03 03:46:39;;;;;;;6.90;2.83;;;;;;;;;;4968057;28;20409;-70
2022/04/03 03:49:06;;;;;;;8.13;2.60;;;;;;;;;;4967964;28;20051;-70
2022/04/03 03:51:33;;;;;;;4.90;2.40;;;;;;;;;;4967770;28;20043;-70
2022/04/03 03:53:59;;;;;;;5.65;2.95;;;;;;;;;;4966826;28;20141;-69
2022/04/03 03:56:25;;;;;;;7.50;2.97;;;;;;;;;;4968165;28;20315;-70
2022/04/03 03:58:52;;;;;;;5.82;2.55;;;;;;;;;;4967573;28;20515;-69
2022/04/03 04:01:18;;;;;;;5.20;2.53;;;;;;;;;;4968448;28;20046;-70
2022/04/03 04:03:44;;;;;;;4.47;2.50;;;;;;;;;;4967764;28;20532;-69
2022/04/03 04:06:10;;;;;;;4.65;2.50;;;;;;;;;;4967574;28;20055;-69
2022/04/03 04:08:36;;;;;;;6.57;2.42;;;;;;;;;;4949298;28;20098;-69
2022/04/03 04:11:03;;;;;;;4.13;2.33;;;;;;;;;;4967662;28;20500;-69
2022/04/03 04:13:29;;;;;;;13.70;3.22;;;;;;;;;;4967586;28;20053;-69
2022/04/03 04:15:55;;;;;;;7.40;2.90;;;;;;;;;;4967560;28;20043;-69
2022/04/03 04:18:21;;;;;;;4.97;2.50;;;;;;;;;;4968054;28;20054;-69
2022/04/03 04:20:47;;;;;;;5.95;2.70;;;;;;;;;;4950425;28;20062;-69
2022/04/03 04:23:13;;;;;;;4.35;2.53;;;;;;;;;;4966994;28;20043;-69
2022/04/03 04:25:39;;;;;;;4.50;2.60;;;;;;;;;;4966873;28;20038;-69
2022/04/03 04:28:06;;;;;;;4.80;2.53;;;;;;;;;;4967011;28;20043;-69
2022/04/03 04:30:33;;;;;;;5.13;2.53;;;;;;;;;;4967449;28;20047;-69
2022/04/03 04:32:59;;;;;;;4.15;2.08;;;;;;;;;;4967039;28;20050;-69
2022/04/03 04:35:25;;;;;;;4.93;2.05;;;;;;;;;;4966949;28;20128;-70
2022/04/03 04:37:51;;;;;;;5.05;2.20;;;;;;;;;;4967653;28;20046;-68
2022/04/03 04:40:17;;;;;;;6.97;2.70;;;;;;;;;;4966957;28;20520;-69
2022/04/03 04:42:43;;;;;;;4.05;2.28;;;;;;;;;;4967269;28;20176;-69
2022/04/03 04:45:10;;;;;;;4.20;2.45;;;;;;;;;;4966728;28;20117;-68
2022/04/03 04:47:37;;;;;;;5.05;2.53;;;;;;;;;;4966792;28;20057;-69
2022/04/03 04:50:07;;;;;;;8.15;4.30;;;;;;;;;;4966682;28;20507;-69
2022/04/03 04:52:34;;;;;;;5.47;2.50;;;;;;;;;;4967053;28;20042;-69
2022/04/03 04:55:00;;;;;;;6.60;2.40;;;;;;;;;;4965998;28;20051;-69
2022/04/03 04:57:26;;;;;;;5.30;2.35;;;;;;;;;;4931437;28;20051;-68
2022/04/03 04:59:52;;;;;;;5.10;2.60;;;;;;;;;;4957196;28;20053;-69
2022/04/03 05:02:19;;;;;;;5.18;2.33;;;;;;;;;;4949040;28;20046;-69
2022/04/03 05:04:45;;;;;;;4.43;2.25;;;;;;;;;;4938022;29;20051;-70
2022/04/03 05:07:11;;;;;;;6.65;2.53;;;;;;;;;;4948030;28;20047;-69
2022/04/03 05:09:38;;;;;;;6.80;2.40;;;;;;;;;;4948478;28;20543;-68
2022/04/03 05:12:04;;;;;;;5.63;2.75;;;;;;;;;;4948867;28;20532;-69
2022/04/03 05:14:30;;;;;;;6.13;2.75;;;;;;;;;;4959066;28;20404;-69
2022/04/03 05:16:56;;;;;;;3.83;2.40;;;;;;;;;;4965438;28;20039;-69
2022/04/03 05:19:24;;;;;;;4.68;2.35;;;;;;;;;;4965684;28;20049;-68
2022/04/03 05:21:51;;;;;;;7.82;2.60;;;;;;;;;;4948530;28;20050;-69
2022/04/03 05:24:17;;;;;;;5.72;2.40;;;;;;;;;;4965779;28;20046;-68
2022/04/03 05:26:43;;;;;;;9.32;2.47;;;;;;;;;;4966232;28;20046;-68
2022/04/03 05:29:10;;;;;;;5.05;2.78;;;;;;;;;;4966165;28;20534;-68
2022/04/03 05:31:36;;;;;;;6.15;2.42;;;;;;;;;;4966192;28;20049;-68
2022/04/03 05:34:02;;;;;;;5.68;2.60;;;;;;;;;;4966197;28;20050;-68
2022/04/03 05:36:28;;;;;;;5.60;2.45;;;;;;;;;;4966019;28;20046;-68
2022/04/03 05:38:54;;;;;;;8.60;2.80;;;;;;;;;;4964753;28;20497;-69
2022/04/03 05:41:20;;;;;;;6.00;2.33;;;;;;;;;;4966296;28;20378;-69
2022/04/03 05:43:47;;;;;;;7.68;2.92;;;;;;;;;;4965820;28;20043;-68
2022/04/03 05:46:13;;;;;;;3.95;2.20;;;;;;;;;;4965650;28;20039;-69
2022/04/03 05:48:40;;;;;;;4.55;2.67;;;;;;;;;;4965553;28;20042;-68
2022/04/03 05:51:06;;;;;;;9.07;2.80;;;;;;;;;;4965907;28;20039;-70
2022/04/03 05:53:32;;;;;;;4.70;2.85;;;;;;;;;;4968553;28;20043;-68
2022/04/03 05:55:58;;;;;;;6.38;2.33;;;;;;;;;;4960951;28;20497;-68
2022/04/03 05:58:24;;;;;;;9.90;2.88;;;;;;;;;;4958510;28;20043;-68
2022/04/03 06:00:51;;;;;;;6.40;2.83;;;;;;;;;;4944670;28;20085;-68
2022/04/03 06:03:17;;;;;;;10.43;2.65;;;;;;;;;;4957396;28;20043;-68
2022/04/03 06:05:43;;;;;;;9.45;3.20;;;;;;;;;;4943428;28;20078;-68
2022/04/03 06:08:09;;;;;;;4.00;2.35;;;;;;;;;;4955209;28;20145;-68
2022/04/03 06:10:36;;;;;;;5.43;3.17;;;;;;;;;;4957134;28;20046;-68
2022/04/03 06:13:04;;;;;;;9.05;3.28;;;;;;;;;;4958901;28;20046;-68
2022/04/03 06:15:33;;;;;;;5.50;2.50;;;;;;;;;;4959595;28;20094;-67
2022/04/03 06:17:59;;;;;;;9.98;3.03;;;;;;;;;;4956760;28;20090;-67
2022/04/03 06:20:25;;;;;;;7.13;2.60;;;;;;;;;;4957792;28;20034;-67
2022/04/03 06:22:52;;;;;;;4.22;2.47;;;;;;;;;;4962883;28;20058;-65
2022/04/03 06:25:20;;;;;;;5.40;2.33;;;;;;;;;;4961753;28;20086;-67
2022/04/03 06:27:46;;;;;;;5.35;2.60;;;;;;;;;;4961429;28;20106;-66
2022/04/03 06:30:13;;;;;;;6.82;2.28;;;;;;;;;;4960757;28;20493;-66
2022/04/03 06:32:39;;;;;;;7.00;2.97;;;;;;;;;;4965006;28;20145;-67
2022/04/03 06:35:06;;;;;;;4.80;2.65;;;;;;;;;;4959883;28;20111;-66
2022/04/03 06:37:32;;;;;;;5.10;2.47;;;;;;;;;;4964511;28;20077;-68
2022/04/03 06:39:59;;;;;;;9.30;2.30;;;;;;;;;;4960120;28;20043;-67
2022/04/03 06:42:25;;;;;;;4.85;2.13;;;;;;;;;;4964125;28;20050;-67
2022/04/03 06:44:51;;;;;;;5.80;1.92;;;;;;;;;;4950386;28;20078;-67
2022/04/03 06:47:18;;;;;;;4.80;2.03;;;;;;;;;;4955382;28;20050;-67
2022/04/03 06:49:44;;;;;;;3.92;2.03;;;;;;;;;;4950064;28;20042;-67
2022/04/03 06:52:10;;;;;;;6.13;1.98;;;;;;;;;;4949941;28;20062;-68
2022/04/03 06:54:36;;;;;;;3.22;1.75;;;;;;;;;;4948152;28;20043;-67
2022/04/03 06:57:03;;;;;;;3.97;1.73;;;;;;;;;;4932284;28;20047;-67
2022/04/03 06:59:29;;;;;;;5.20;1.50;;;;;;;;;;4949812;28;20489;-67
2022/04/03 07:01:56;;;;;;;5.70;1.88;;;;;;;;;;4949261;28;20743;-67
2022/04/03 07:04:22;;;;;;;3.15;1.38;;;;;;;;;;4956117;28;20129;-68
2022/04/03 07:06:48;;;;;;;4.93;2.08;;;;;;;;;;4950234;28;20043;-67
2022/04/03 07:09:14;;;;;;;5.43;1.60;;;;;;;;;;4948418;28;20047;-66
2022/04/03 07:11:41;;;;;;;5.78;1.25;;;;;;;;;;4949525;28;20401;-67
2022/04/03 07:14:07;;;;;;;2.75;1.00;;;;;;;;;;4949116;28;20078;-66
2022/04/03 07:16:34;;;;;;;9.05;1.60;;;;;;;;;;4957450;28;20035;-66
2022/04/03 07:19:00;;;;;;;3.15;1.40;;;;;;;;;;4957150;28;20080;-66
2022/04/03 07:21:26;;;;;;;4.50;1.27;;;;;;;;;;4959441;28;20489;-66
2022/04/03 07:23:52;;;;;;;2.92;1.08;;;;;;;;;;4948775;28;20441;-66
2022/04/03 07:26:19;;;;;;;3.08;1.52;;;;;;;;;;4949668;28;20043;-65
2022/04/03 07:28:45;;;;;;;4.68;1.05;;;;;;;;;;4949235;28;20122;-65
2022/04/03 07:31:11;;;;;;;4.75;1.33;;;;;;;;;;4949368;28;20059;-65
2022/04/03 07:33:38;;;;;;;7.53;1.10;;;;;;;;;;4941099;28;20532;-65
2022/04/03 07:36:04;;;;;;;4.95;1.20;;;;;;;;;;4968811;28;20096;-65
2022/04/03 07:38:30;;;;;;;2.85;0.90;;;;;;;;;;4964845;28;20089;-65
2022/04/03 07:40:56;;;;;;;2.78;0.90;;;;;;;;;;4966944;28;20045;-65
2022/04/03 07:43:23;;;;;;;4.78;1.20;;;;;;;;;;4968323;28;20046;-64
2022/04/03 07:45:49;;;;;;;2.75;1.35;;;;;;;;;;4968733;28;20251;-64
2022/04/03 07:48:17;;;;;;;3.42;0.60;;;;;;;;;;4968542;28;20039;-65
2022/04/03 07:50:43;;;;;;;3.50;0.73;;;;;;;;;;4968352;28;20039;-64
2022/04/03 07:53:10;;;;;;;4.47;1.00;;;;;;;;;;4967778;28;20057;-64
2022/04/03 07:55:36;;;;;;;1.58;0.80;;;;;;;;;;4968071;28;20039;-64
2022/04/03 07:58:02;;;;;;;2.25;0.90;;;;;;;;;;4968283;28;20053;-64
2022/04/03 08:00:29;;;;;;;4.57;0.82;;;;;;;;;;4968177;28;20054;-64
2022/04/03 08:02:55;;;;;;;2.15;0.70;;;;;;;;;;4967847;28;20064;-64
2022/04/03 08:05:21;;;;;;;3.95;0.80;;;;;;;;;;4968211;28;20074;-65
2022/04/03 08:07:48;;;;;;;2.20;0.80;;;;;;;;;;4967987;28;20512;-64
2022/04/03 08:10:15;;;;;;;2.05;0.57;;;;;;;;;;4967782;28;20043;-65
2022/04/03 08:12:42;;;;;;;2.42;1.05;;;;;;;;;;4968642;28;20126;-65
2022/04/03 08:15:10;;;;;;;3.40;0.88;;;;;;;;;;4950920;28;20054;-64
2022/04/03 08:17:38;;;;;;;3.10;0.77;;;;;;;;;;4968031;28;20456;-64
2022/04/03 08:20:05;;;;;;;5.50;1.00;;;;;;;;;;4968012;28;20118;-64
2022/04/03 08:22:31;;;;;;;3.97;1.00;;;;;;;;;;4968289;28;20464;-65
2022/04/03 08:24:57;;;;;;;4.55;0.70;;;;;;;;;;4967501;28;20130;-65
2022/04/03 08:27:23;;;;;;;4.63;0.70;;;;;;;;;;4968093;28;20393;-65
2022/04/03 08:29:50;;;;;;;2.22;0.75;;;;;;;;;;4967785;28;20563;-64
2022/04/03 08:32:16;;;;;;;1.55;0.82;;;;;;;;;;4967077;28;20047;-65
2022/04/03 08:34:42;;;;;;;3.28;0.85;;;;;;;;;;4968140;28;20725;-65
2022/04/03 08:37:08;;;;;;;4.75;0.82;;;;;;;;;;4967796;28;20093;-65
2022/04/03 08:39:34;;;;;;;4.75;1.00;;;;;;;;;;4967425;28;20051;-65
2022/04/03 08:42:00;;;;;;;3.00;0.90;;;;;;;;;;4966936;28;20030;-65
2022/04/03 08:44:27;;;;;;;3.15;0.70;;;;;;;;;;4966419;28;20162;-65
2022/04/03 08:46:53;;;;;;;7.15;0.80;;;;;;;;;;4966593;28;20097;-64
2022/04/03 08:49:20;;;;;;;6.68;0.70;;;;;;;;;;4961683;28;20046;-64
2022/04/03 08:51:46;;;;;;;3.72;0.82;;;;;;;;;;4962139;28;20593;-64
2022/04/03 08:54:14;;;;;;;2.13;0.70;;;;;;;;;;4965106;28;20043;-64
2022/04/03 08:56:42;;;;;;;1.13;0.50;;;;;;;;;;4967099;28;20120;-64
2022/04/03 08:59:09;;;;;;;4.55;0.95;;;;;;;;;;4966666;28;20063;-64
2022/04/03 09:01:35;;;;;;;2.90;0.75;;;;;;;;;;4949279;28;20047;-64
2022/04/03 09:04:01;;;;;;;5.57;0.98;;;;;;;;;;4967199;28;20050;-64
2022/04/03 09:06:28;;;;;;;4.63;0.65;;;;;;;;;;4967279;28;20046;-64
2022/04/03 09:08:54;;;;;;;8.38;1.45;;;;;;;;;;4966017;28;20130;-64
2022/04/03 09:11:20;;;;;;;2.28;0.70;;;;;;;;;;4967333;28;20717;-65
2022/04/03 09:13:46;;;;;;;3.03;0.90;;;;;;;;;;4966134;28;20047;-64
2022/04/03 09:16:13;;;;;;;1.58;0.50;;;;;;;;;;4966786;28;20046;-64
2022/04/03 09:18:47;;;;;;;1.13;0.40;;;;;;;;;;4952374;28;20442;-64
2022/04/03 09:21:15;;;;;;;3.83;0.50;;;;;;;;;;4945486;29;20506;-64
2022/04/03 09:24:00;;;;;;;3.03;0.82;;;;;;;;;;4945301;29;20039;-64
2022/04/03 09:26:26;;;;;;;1.75;0.50;;;;;;;;;;4945856;29;20079;-64
2022/04/03 09:29:12;;;;;;;3.38;0.93;;;;;;;;;;4953261;28;20059;-65
2022/04/03 09:31:39;;;;;;;3.33;0.50;;;;;;;;;;4958473;28;20047;-66
2022/04/03 09:34:07;;;;;;;4.53;0.80;;;;;;;;;;4959989;28;20043;-66
2022/04/03 09:36:34;;;;;;;4.33;0.70;;;;;;;;;;4961118;28;20078;-65
2022/04/03 09:39:06;;;;;;;4.15;0.40;;;;;;;;;;4959539;28;20165;-65
2022/04/03 09:41:33;;;;;;;0.93;0.50;;;;;;;;;;4960615;28;20170;-65
2022/04/03 09:43:59;;;;;;;2.10;0.55;;;;;;;;;;4942363;28;20149;-65
2022/04/03 09:46:29;;;;;;;1.73;0.30;;;;;;;;;;4960765;28;20475;-65
2022/04/03 09:48:56;;;;;;;2.17;0.77;;;;;;;;;;4960367;28;20053;-65
2022/04/03 09:51:22;;;;;;;5.60;0.85;;;;;;;;;;4961261;28;20078;-64
2022/04/03 09:53:52;;;;;;;4.13;0.60;;;;;;;;;;4952987;28;20497;-64
2022/04/03 09:56:21;;;;;;;2.80;0.77;;;;;;;;;;4950380;28;20416;-64
2022/04/03 09:58:54;;;;;;;3.13;0.50;;;;;;;;;;4962109;28;20039;-63
2022/04/03 10:01:26;;;;;;;5.40;0.80;;;;;;;;;;4962553;28;20046;-63
2022/04/03 10:03:53;;;;;;;7.45;0.68;;;;;;;;;;4964351;28;20500;-63
2022/04/03 10:06:19;;;;;;;1.42;0.50;;;;;;;;;;4967414;28;20049;-63
2022/04/03 10:08:47;;;;;;;1.98;0.60;;;;;;;;;;4967236;28;20564;-64
2022/04/03 10:11:14;;;;;;;2.95;0.63;;;;;;;;;;4968443;28;20051;-63
2022/04/03 10:13:42;;;;;;;4.10;0.50;;;;;;;;;;4968423;28;20056;-63
2022/04/03 10:16:08;;;;;;;2.73;0.60;;;;;;;;;;4950903;28;20085;-63
2022/04/03 10:18:35;;;;;;;2.45;0.50;;;;;;;;;;4967937;28;20063;-63
2022/04/03 10:21:01;;;;;;;0.93;0.40;;;;;;;;;;4967693;28;20061;-63
2022/04/03 10:23:29;;;;;;;2.92;0.50;;;;;;;;;;4962690;28;20046;-64
2022/04/03 10:25:57;;;;;;;3.00;0.60;;;;;;;;;;4967166;28;20047;-64
2022/04/03 10:28:23;;;;;;;8.83;0.90;;;;;;;;;;4967025;28;20295;-64
2022/04/03 10:31:00;;;;;;;2.28;0.47;;;;;;;;;;4966884;28;20089;-64
2022/04/03 10:33:35;;;;;;;1.40;0.40;;;;;;;;;;4966691;28;20053;-64
2022/04/03 10:36:04;;;;;;;1.52;0.30;;;;;;;;;;4966505;28;20718;-64
2022/04/03 10:38:37;;;;;;;0.93;0.40;;;;;;;;;;4967041;28;20080;-63
2022/04/03 10:41:05;;;;;;;0.82;0.22;;;;;;;;;;4966698;28;20086;-64
2022/04/03 10:43:32;;;;;;;5.88;0.73;;;;;;;;;;4967246;28;20047;-64
2022/04/03 10:45:58;;;;;;;2.22;0.47;;;;;;;;;;4967117;28;20039;-64
2022/04/03 10:48:26;;;;;;;11.57;5.18;;;;;;;;;;4967630;28;20047;-64
2022/04/03 10:50:59;;;;;;;1.33;0.60;;;;;;;;;;4967618;28;20047;-64
2022/04/03 10:53:26;;;;;;;1.42;0.50;;;;;;;;;;4966507;28;20055;-64
2022/04/03 10:55:55;;;;;;;2.80;0.82;;;;;;;;;;4962950;28;20035;-64
2022/04/03 10:58:22;;;;;;;1.75;0.68;;;;;;;;;;4949370;28;20054;-65
2022/04/03 11:00:49;;;;;;;4.15;0.57;;;;;;;;;;4952679;28;20126;-65
2022/04/03 11:03:15;;;;;;;3.63;0.65;;;;;;;;;;4951766;28;20051;-65
2022/04/03 11:05:43;;;;;;;4.75;0.45;;;;;;;;;;4948957;28;20598;-64
2022/04/03 11:08:09;;;;;;;4.50;0.40;;;;;;;;;;4930507;28;20059;-64
2022/04/03 11:10:48;;;;;;;4.32;0.50;;;;;;;;;;4949394;28;20043;-65
2022/04/03 11:13:16;;;;;;;0.60;0.30;;;;;;;;;;4948672;28;20039;-65
2022/04/03 11:15:45;;;;;;;4.65;0.70;;;;;;;;;;4952849;28;20770;-65
2022/04/03 11:18:30;;;;;;;3.38;0.50;;;;;;;;;;4965058;28;20150;-63
2022/04/03 11:21:06;;;;;;;2.78;0.98;;;;;;;;;;4958768;28;20043;-65
2022/04/03 11:23:35;;;;;;;2.15;0.35;;;;;;;;;;4947078;29;20556;-65
2022/04/03 11:26:01;;;;;;;2.50;0.40;;;;;;;;;;4947079;29;20099;-65
2022/04/03 11:28:27;;;;;;;4.43;0.60;;;;;;;;;;4947039;28;20053;-66
2022/04/03 11:30:54;;;;;;;1.15;0.63;;;;;;;;;;4946914;28;20058;-65
2022/04/03 11:33:21;;;;;;;4.18;0.90;;;;;;;;;;4966326;28;20520;-65
2022/04/03 11:35:47;;;;;;;7.68;1.55;;;;;;;;;;4965517;28;20043;-65
2022/04/03 11:38:15;;;;;;;2.38;0.70;;;;;;;;;;4958091;28;20509;-65
2022/04/03 11:40:43;;;;;;;2.63;0.90;;;;;;;;;;4955335;28;20512;-65
2022/04/03 11:43:16;;;;;;;1.77;0.50;;;;;;;;;;4961516;28;20047;-65
2022/04/03 11:45:49;;;;;;;2.15;0.60;;;;;;;;;;4956476;28;20106;-65
2022/04/03 11:48:19;;;;;;;3.83;0.50;;;;;;;;;;4956291;28;20050;-65
2022/04/03 11:50:46;;;;;;;2.30;0.45;;;;;;;;;;4960431;28;20101;-65
2022/04/03 11:53:12;;;;;;;2.70;0.50;;;;;;;;;;4957420;28;20144;-66
2022/04/03 11:55:39;;;;;;;1.25;0.52;;;;;;;;;;4960170;28;20061;-65
2022/04/03 11:58:05;;;;;;;2.97;1.48;;;;;;;;;;4958436;28;20093;-66
2022/04/03 12:00:32;;;;;;;1.95;0.60;;;;;;;;;;4953513;28;20490;-65
2022/04/03 12:02:58;;;;;;;3.60;0.50;;;;;;;;;;4946024;28;20035;-66
2022/04/03 12:05:25;;;;;;;6.07;0.50;;;;;;;;;;4950967;28;20605;-65
2022/04/03 12:07:52;;;;;;;1.08;0.38;;;;;;;;;;4952328;28;20057;-65
2022/04/03 12:10:23;;;;;;;4.32;0.63;;;;;;;;;;4957933;28;20062;-65
2022/04/03 12:12:49;;;;;;;1.33;0.60;;;;;;;;;;4947129;28;20043;-65
2022/04/03 12:15:15;;;;;;;1.48;0.60;;;;;;;;;;4956851;28;20053;-65
2022/04/03 12:17:43;;;;;;;3.50;0.50;;;;;;;;;;4953151;28;20051;-65
2022/04/03 12:20:12;;;;;;;5.57;0.50;;;;;;;;;;4945010;28;20092;-65
2022/04/03 12:22:41;;;;;;;1.27;0.30;;;;;;;;;;4948707;28;20051;-65
2022/04/03 12:25:07;;;;;;;3.83;0.30;;;;;;;;;;4956977;28;20043;-65
2022/04/03 12:27:37;;;;;;;1.02;0.28;;;;;;;;;;4951415;28;20792;-66
2022/04/03 12:30:03;;;;;;;1.48;0.20;;;;;;;;;;4945297;28;20055;-65
2022/04/03 12:32:35;;;;;;;1.73;0.35;;;;;;;;;;4945483;28;20054;-65
2022/04/03 12:35:02;;;;;;;2.97;0.65;;;;;;;;;;4945470;28;20059;-65
2022/04/03 12:37:32;;;;;;;3.05;0.50;;;;;;;;;;4945125;28;20278;-65
2022/04/03 12:39:59;;;;;;;5.55;0.68;;;;;;;;;;4945319;28;20047;-65
2022/04/03 12:42:26;;;;;;;1.65;0.30;;;;;;;;;;4945720;28;20047;-65
2022/04/03 12:44:55;;;;;;;1.95;0.30;;;;;;;;;;4945091;28;20043;-66
2022/04/03 12:47:28;;;;;;;0.63;0.30;;;;;;;;;;4945408;28;20134;-66
2022/04/03 12:50:03;;;;;;;2.35;0.30;;;;;;;;;;4950115;28;20054;-66
2022/04/03 12:52:41;;;;;;;3.92;0.40;;;;;;;;;;4948084;28;20904;-65
2022/04/03 12:55:24;;;;;;;1.75;0.30;;;;;;;;;;4944628;28;20416;-65
2022/04/03 13:00:51;;;;;;;2.72;0.35;;;;;;;;;;4962572;28;20130;-66
2022/04/03 13:03:30;;;;;;;2.47;0.32;;;;;;;;;;4965378;28;20398;-66
2022/04/03 13:05:57;;;;;;;2.25;0.50;;;;;;;;;;4964118;28;20039;-65
2022/04/03 13:08:24;;;;;;;2.67;0.40;;;;;;;;;;4963788;28;20063;-65
2022/04/03 13:10:51;;;;;;;1.80;0.40;;;;;;;;;;4964825;28;20783;-65
2022/04/03 13:13:21;;;;;;;4.53;0.55;;;;;;;;;;4963950;28;20249;-66
2022/04/03 13:15:48;;;;;;;2.50;0.40;;;;;;;;;;4964231;28;20047;-65
2022/04/03 13:18:14;;;;;;;4.38;0.55;;;;;;;;;;4964132;28;20042;-65
2022/04/03 13:20:40;;;;;;;6.80;0.57;;;;;;;;;;4963719;28;20058;-65
2022/04/03 13:23:06;;;;;;;3.55;0.40;;;;;;;;;;4963781;28;20051;-65
2022/04/03 13:25:33;;;;;;;1.98;0.73;;;;;;;;;;4964714;28;20050;-65
2022/04/03 13:27:59;;;;;;;2.92;0.40;;;;;;;;;;4964215;28;20047;-65
2022/04/03 13:30:25;;;;;;;1.23;0.40;;;;;;;;;;4963120;28;20097;-66
2022/04/03 13:32:51;;;;;;;3.00;0.50;;;;;;;;;;4964828;28;20081;-66
2022/04/03 13:35:18;;;;;;;2.85;0.50;;;;;;;;;;4963049;28;20093;-65
2022/04/03 13:37:44;;;;;;;2.72;0.55;;;;;;;;;;4963969;28;20046;-65
2022/04/03 13:40:11;;;;;;;2.90;0.50;;;;;;;;;;4964192;28;20561;-65
2022/04/03 13:42:37;;;;;;;3.05;0.52;;;;;;;;;;4964821;28;20105;-65
2022/04/03 13:45:03;;;;;;;3.15;0.55;;;;;;;;;;4963066;28;20051;-65
2022/04/03 13:47:30;;;;;;;3.90;0.52;;;;;;;;;;4963296;28;20038;-65
2022/04/03 13:49:56;;;;;;;5.15;0.60;;;;;;;;;;4963731;28;20043;-65
2022/04/03 13:52:24;;;;;;;1.75;0.50;;;;;;;;;;4960211;28;20055;-66
2022/04/03 13:54:50;;;;;;;1.00;0.63;;;;;;;;;;4963627;28;20047;-67
2022/04/03 13:57:16;;;;;;;2.88;0.43;;;;;;;;;;4964178;28;20050;-64
2022/04/03 13:59:42;;;;;;;2.30;0.50;;;;;;;;;;4962823;28;20058;-63
2022/04/03 14:02:09;;;;;;;1.88;0.52;;;;;;;;;;4945880;28;20142;-63
2022/04/03 14:04:35;;;;;;;0.98;0.50;;;;;;;;;;4963554;28;20093;-63
2022/04/03 14:07:01;;;;;;;0.90;0.40;;;;;;;;;;4962463;28;20055;-64
2022/04/03 14:09:27;;;;;;;2.83;0.60;;;;;;;;;;4959365;28;20066;-65
2022/04/03 14:11:54;;;;;;;1.83;1.20;;;;;;;;;;4963185;28;20061;-63
2022/04/03 14:14:21;;;;;;;2.90;0.50;;;;;;;;;;4957550;28;20046;-63
2022/04/03 14:16:47;;;;;;;2.13;0.60;;;;;;;;;;4963524;28;20790;-64
2022/04/03 14:19:14;;;;;;;6.85;0.65;;;;;;;;;;4962894;28;20050;-66
2022/04/03 14:21:40;;;;;;;2.45;0.40;;;;;;;;;;4961761;28;20038;-66
2022/04/03 14:24:07;;;;;;;2.67;0.60;;;;;;;;;;4960918;28;20058;-65
2022/04/03 14:26:33;;;;;;;3.40;0.50;;;;;;;;;;4961146;28;20038;-65
2022/04/03 14:28:59;;;;;;;3.65;0.63;;;;;;;;;;4963189;28;20043;-65
2022/04/03 14:31:26;;;;;;;2.88;0.60;;;;;;;;;;4963179;28;20820;-66
2022/04/03 14:33:52;;;;;;;3.50;0.47;;;;;;;;;;4963626;28;20047;-64
2022/04/03 14:36:21;;;;;;;1.33;0.40;;;;;;;;;;4965651;28;20110;-65
2022/04/03 14:38:47;;;;;;;0.90;0.40;;;;;;;;;;4962883;28;20054;-66
2022/04/03 14:41:13;;;;;;;1.42;0.47;;;;;;;;;;4962778;28;20503;-65
2022/04/03 14:43:40;;;;;;;0.85;0.45;;;;;;;;;;4962727;28;20049;-66
2022/04/03 14:46:06;;;;;;;2.00;0.60;;;;;;;;;;4966144;28;20074;-66